Time;durP1;ratioP1;P1;durP2;ratioP2;P2;SDS_P1;SDS_P2;PMS_P1;PMS_P2;Temp;Humidity;BMP_temperature;BMP_pressure;BME280_temperature;BME280_humidity;BME280_pressure;Samples;Min_cycle;Max_cycle;Signal;HPM_P1;HPM_P2
2022/11/03 00:01:36;;;;;;;2.40;1.10;;;19.80;40.40;;;;;;5046741;28;20191;-71
2022/11/03 00:04:09;;;;;;;3.27;0.90;;;20.50;40.00;;;;;;5054365;28;20184;-70
2022/11/03 00:06:37;;;;;;;2.07;0.70;;;20.70;38.70;;;;;;5055032;28;20788;-71
2022/11/03 00:09:07;;;;;;;4.27;0.60;;;20.80;38.40;;;;;;5052166;28;20199;-71
2022/11/03 00:11:36;;;;;;;2.77;0.70;;;20.70;38.60;;;;;;5048643;28;20180;-70
2022/11/03 00:14:04;;;;;;;2.20;0.90;;;20.70;37.90;;;;;;5035791;28;20215;-71
2022/11/03 00:16:32;;;;;;;1.87;0.90;;;20.80;37.80;;;;;;5053195;28;20261;-72
2022/11/03 00:19:00;;;;;;;2.13;0.80;;;21.30;37.30;;;;;;5060967;28;20188;-71
2022/11/03 00:21:28;;;;;;;2.00;0.93;;;20.80;37.50;;;;;;5055911;28;20230;-72
2022/11/03 00:23:55;;;;;;;2.17;0.80;;;20.70;38.60;;;;;;5061123;28;20172;-71
2022/11/03 00:26:27;;;;;;;2.10;0.60;;;20.90;37.60;;;;;;5066293;28;20191;-69
2022/11/03 00:28:57;;;;;;;1.67;0.70;;;21.00;36.80;;;;;;5055083;28;20183;-71
2022/11/03 00:31:26;;;;;;;1.83;1.03;;;21.10;36.90;;;;;;5059172;28;20187;-70
2022/11/03 00:33:55;;;;;;;1.60;0.60;;;21.20;37.20;;;;;;5057579;28;20593;-70
2022/11/03 00:36:34;;;;;;;1.10;0.70;;;21.30;37.00;;;;;;5047929;28;20183;-71
2022/11/03 00:39:03;;;;;;;2.63;0.60;;;21.10;36.30;;;;;;5061386;28;20249;-71
2022/11/03 00:41:30;;;;;;;1.53;0.80;;;20.70;36.90;;;;;;5066250;28;20175;-71
2022/11/03 00:43:57;;;;;;;1.60;0.70;;;20.70;37.30;;;;;;5038893;28;20270;-69
2022/11/03 00:46:26;;;;;;;1.53;0.73;;;20.60;37.20;;;;;;5063373;28;20186;-69
2022/11/03 00:48:53;;;;;;;6.37;0.70;;;20.80;37.60;;;;;;5057693;28;20279;-70
2022/11/03 00:51:23;;;;;;;3.07;0.90;;;20.60;36.10;;;;;;5057677;28;20236;-68
2022/11/03 00:53:54;;;;;;;3.43;0.70;;;20.40;37.00;;;;;;5051036;28;20212;-71
2022/11/03 00:56:29;;;;;;;1.43;0.90;;;20.60;36.60;;;;;;5048080;28;20591;-69
2022/11/03 00:58:58;;;;;;;4.67;0.73;;;20.50;36.70;;;;;;5053200;28;20229;-69
2022/11/03 01:01:29;;;;;;;3.47;0.93;;;20.50;37.10;;;;;;5071393;28;20171;-68
2022/11/03 01:06:53;;;;;;;3.20;0.90;;;20.00;38.30;;;;;;5056509;28;20259;-69
2022/11/03 01:09:27;;;;;;;1.73;0.80;;;20.00;38.90;;;;;;5055523;28;20182;-69
2022/11/03 01:12:13;;;;;;;4.53;0.90;;;20.10;38.60;;;;;;5042983;28;20662;-67
2022/11/03 01:14:48;;;;;;;2.40;0.70;;;20.20;37.50;;;;;;5049842;28;20215;-70
2022/11/03 01:17:20;;;;;;;2.73;0.70;;;20.00;37.10;;;;;;5055973;28;20191;-71
2022/11/03 01:19:48;;;;;;;3.13;0.70;;;19.80;37.20;;;;;;5047211;28;20660;-69
2022/11/03 01:22:16;;;;;;;2.67;0.80;;;19.70;37.60;;;;;;5056617;28;20179;-70
2022/11/03 01:24:45;;;;;;;3.87;0.73;;;19.60;38.00;;;;;;5057408;28;20226;-72
2022/11/03 01:27:15;;;;;;;1.33;0.70;;;19.50;38.90;;;;;;5065411;28;20630;-69
2022/11/03 01:29:43;;;;;;;3.03;0.90;;;19.40;39.50;;;;;;5063295;28;20172;-67
2022/11/03 01:32:11;;;;;;;2.10;0.70;;;19.40;38.10;;;;;;5060918;28;20176;-70
2022/11/03 01:34:40;;;;;;;1.53;0.80;;;19.50;37.40;;;;;;5060600;28;20211;-69
2022/11/03 01:37:07;;;;;;;0.90;0.60;;;19.90;36.60;;;;;;5069183;28;20194;-69
2022/11/03 01:39:35;;;;;;;1.40;0.63;;;19.80;36.60;;;;;;5053938;28;20176;-68
2022/11/03 01:42:02;;;;;;;4.50;0.80;;;19.80;37.30;;;;;;5052626;28;20259;-69
2022/11/03 01:44:41;;;;;;;0.97;0.67;;;19.70;37.50;;;;;;5053042;28;20232;-71
2022/11/03 01:47:12;;;;;;;1.87;0.60;;;19.70;37.60;;;;;;5053041;28;20184;-70
2022/11/03 01:50:07;;;;;;;0.90;0.60;;;19.50;38.00;;;;;;5068046;28;20666;-68
2022/11/03 01:52:56;;;;;;;1.80;0.70;;;19.30;38.60;;;;;;5047128;28;20711;-68
2022/11/03 01:55:28;;;;;;;2.27;0.93;;;19.20;39.30;;;;;;5050677;28;20665;-68
2022/11/03 01:58:11;;;;;;;1.53;0.63;;;19.10;40.40;;;;;;5044913;28;20180;-69
2022/11/03 02:00:41;;;;;;;2.60;0.90;;;19.00;40.80;;;;;;5030403;28;20271;-69
2022/11/03 02:03:09;;;;;;;2.47;0.80;;;19.00;40.30;;;;;;5057379;28;20872;-69
2022/11/03 02:05:38;;;;;;;1.43;0.60;;;19.10;40.50;;;;;;5053386;28;20186;-69
2022/11/03 02:08:25;;;;;;;2.13;0.60;;;19.20;40.20;;;;;;5052199;28;20189;-69
2022/11/03 02:10:52;;;;;;;4.03;0.63;;;19.70;38.60;;;;;;5051904;28;20175;-69
2022/11/03 02:13:23;;;;;;;1.27;0.50;;;20.70;35.90;;;;;;5056241;28;20200;-69
2022/11/03 02:15:53;;;;;;;1.67;0.63;;;20.50;35.40;;;;;;5051871;28;20183;-68
2022/11/03 02:18:25;;;;;;;3.03;0.70;;;20.20;36.80;;;;;;5052454;28;20207;-69
2022/11/03 02:21:11;;;;;;;5.23;0.80;;;20.00;37.80;;;;;;5051747;28;20229;-68
2022/11/03 02:24:07;;;;;;;1.33;0.67;;;19.90;38.70;;;;;;5052318;28;20175;-69
2022/11/03 02:26:35;;;;;;;1.23;0.70;;;19.80;39.20;;;;;;5052842;28;20230;-69
2022/11/03 02:29:02;;;;;;;1.33;0.70;;;19.80;40.10;;;;;;5052749;28;20178;-69
2022/11/03 02:31:42;;;;;;;0.67;0.60;;;19.70;38.80;;;;;;5052284;28;20186;-69
2022/11/03 02:34:50;;;;;;;2.93;1.00;;;19.60;39.50;;;;;;5052434;28;20290;-68
2022/11/03 02:37:22;;;;;;;1.87;0.70;;;19.70;39.20;;;;;;5052031;28;20172;-69
2022/11/03 02:40:05;;;;;;;1.90;0.80;;;19.60;39.90;;;;;;5035655;28;20190;-69
2022/11/03 02:42:35;;;;;;;5.50;1.10;;;19.50;38.90;;;;;;5052425;28;20617;-69
2022/11/03 02:45:06;;;;;;;0.77;0.50;;;19.40;39.30;;;;;;5052324;28;20220;-69
2022/11/03 02:47:36;;;;;;;2.43;0.60;;;19.30;37.90;;;;;;5052230;28;20614;-69
2022/11/03 02:50:09;;;;;;;0.83;0.60;;;19.30;37.70;;;;;;5052196;28;20268;-68
2022/11/03 02:52:47;;;;;;;0.60;0.43;;;19.30;38.30;;;;;;5052166;28;20172;-69
2022/11/03 02:55:42;;;;;;;1.40;0.63;;;19.30;39.50;;;;;;5041866;28;20219;-67
2022/11/03 02:58:26;;;;;;;1.47;0.80;;;19.30;42.60;;;;;;5051444;28;20195;-69
2022/11/03 03:01:03;;;;;;;2.37;0.70;;;19.40;44.00;;;;;;5050696;28;20179;-72
2022/11/03 03:03:41;;;;;;;2.40;0.60;;;19.40;43.50;;;;;;5035798;28;20171;-68
2022/11/03 03:06:42;;;;;;;1.83;0.70;;;19.80;41.90;;;;;;5056225;28;20520;-68
2022/11/03 03:09:23;;;;;;;2.00;0.70;;;19.80;41.30;;;;;;5037601;28;20876;-69
2022/11/03 03:11:53;;;;;;;1.33;0.70;;;19.80;42.00;;;;;;5055424;28;20191;-68
2022/11/03 03:14:43;;;;;;;1.03;0.60;;;20.00;42.30;;;;;;5055109;28;20238;-69
2022/11/03 03:17:13;;;;;;;1.40;0.53;;;19.90;43.70;;;;;;5054606;28;20179;-70
2022/11/03 03:20:02;;;;;;;1.90;0.80;;;20.40;42.30;;;;;;5048149;28;20218;-72
2022/11/03 03:22:41;;;;;;;1.17;0.60;;;20.90;41.10;;;;;;5050110;28;20180;-69
2022/11/03 03:25:08;;;;;;;1.17;0.70;;;21.50;39.80;;;;;;5054973;28;20638;-71
2022/11/03 03:27:41;;;;;;;1.70;0.60;;;21.50;39.00;;;;;;5054313;28;20192;-70
2022/11/03 03:30:09;;;;;;;0.70;0.60;;;21.10;39.10;;;;;;5052664;28;20218;-70
2022/11/03 03:32:40;;;;;;;0.50;0.40;;;21.00;39.60;;;;;;5055008;28;20180;-69
2022/11/03 03:35:10;;;;;;;1.80;0.60;;;21.20;39.30;;;;;;5053952;28;20219;-68
2022/11/03 03:37:42;;;;;;;0.90;0.77;;;21.30;38.70;;;;;;5055615;28;20178;-69
2022/11/03 03:40:14;;;;;;;2.00;0.60;;;21.40;38.70;;;;;;5055315;28;20564;-70
2022/11/03 03:42:44;;;;;;;2.17;0.50;;;22.30;37.50;;;;;;5054070;28;20180;-69
2022/11/03 03:45:13;;;;;;;1.17;0.50;;;22.30;36.10;;;;;;5054343;28;20250;-68
2022/11/03 03:47:44;;;;;;;3.20;0.60;;;22.70;34.90;;;;;;5055357;28;20184;-69
2022/11/03 03:50:12;;;;;;;3.40;0.60;;;22.60;35.70;;;;;;5037374;28;20175;-68
2022/11/03 03:52:39;;;;;;;1.23;0.53;;;22.30;37.40;;;;;;5070762;28;20650;-69
2022/11/03 03:55:16;;;;;;;1.20;0.40;;;21.70;38.20;;;;;;5053711;28;20216;-68
2022/11/03 03:57:44;;;;;;;1.87;0.60;;;21.20;38.60;;;;;;5052527;28;20506;-70
2022/11/03 04:00:15;;;;;;;3.60;0.97;;;20.80;40.00;;;;;;5054206;28;20179;-70
2022/11/03 04:02:42;;;;;;;2.93;0.70;;;20.60;40.80;;;;;;5052549;28;20669;-69
2022/11/03 04:05:10;;;;;;;1.90;0.80;;;20.80;40.80;;;;;;5051973;28;20210;-69
2022/11/03 04:07:46;;;;;;;3.13;0.83;;;21.80;39.50;;;;;;5033112;28;20654;-72
2022/11/03 04:10:15;;;;;;;1.90;0.53;;;23.40;37.30;;;;;;5035834;28;20258;-69
2022/11/03 04:23:45;;;;;;;1.83;0.50;;;24.50;35.00;;;;;;5052604;28;20592;-70
2022/11/03 04:26:15;;;;;;;5.07;0.60;;;24.10;35.20;;;;;;5054880;28;20182;-68
2022/11/03 04:28:43;;;;;;;1.73;0.60;;;25.30;34.00;;;;;;5029088;28;20233;-68
2022/11/03 04:31:12;;;;;;;1.93;0.50;;;24.90;33.40;;;;;;5052195;28;20195;-69
2022/11/03 04:33:41;;;;;;;0.93;0.40;;;25.10;33.10;;;;;;5053493;28;20200;-71
2022/11/03 04:36:18;;;;;;;2.33;0.30;;;25.10;33.50;;;;;;5052972;28;20187;-70
2022/11/03 04:38:47;;;;;;;1.57;0.60;;;25.30;33.80;;;;;;5049101;28;20648;-69
2022/11/03 04:41:28;;;;;;;2.27;0.40;;;25.30;33.50;;;;;;5040437;28;20179;-71
2022/11/03 04:43:57;;;;;;;3.23;0.50;;;23.80;35.30;;;;;;5053073;28;20219;-69
2022/11/03 04:46:27;;;;;;;1.30;0.50;;;23.70;35.40;;;;;;5052695;28;20187;-68
2022/11/03 04:49:00;;;;;;;1.57;0.70;;;24.30;34.90;;;;;;5053798;28;20198;-67
2022/11/03 04:51:32;;;;;;;3.13;0.43;;;24.50;34.70;;;;;;5052971;28;20168;-66
2022/11/03 04:54:15;;;;;;;0.73;0.33;;;25.60;32.80;;;;;;5053930;28;20203;-67
2022/11/03 04:56:42;;;;;;;2.53;0.73;;;24.40;34.40;;;;;;5035335;28;20634;-70
2022/11/03 04:59:15;;;;;;;0.70;0.40;;;25.30;33.40;;;;;;5052709;28;20226;-69
2022/11/03 05:01:46;;;;;;;4.00;0.70;;;25.70;32.80;;;;;;5034208;28;20259;-68
2022/11/03 05:04:18;;;;;;;2.10;0.60;;;25.90;32.80;;;;;;5048853;28;20233;-70
2022/11/03 05:06:50;;;;;;;1.77;0.60;;;26.30;31.10;;;;;;5051594;28;20207;-68
2022/11/03 05:09:25;;;;;;;3.30;0.80;;;26.20;32.40;;;;;;5053479;28;20696;-69
2022/11/03 05:11:53;;;;;;;1.97;0.80;;;26.80;30.80;;;;;;5052768;28;20195;-68
2022/11/03 05:14:29;;;;;;;2.63;0.37;;;26.70;31.90;;;;;;5053427;28;20234;-70
2022/11/03 05:16:57;;;;;;;2.97;0.43;;;26.10;32.10;;;;;;5052835;28;20506;-69
2022/11/03 05:19:30;;;;;;;1.67;0.40;;;26.30;32.40;;;;;;5050221;28;20194;-69
2022/11/03 05:21:59;;;;;;;1.37;0.50;;;27.60;30.80;;;;;;5051914;28;20180;-68
2022/11/03 05:24:27;;;;;;;1.30;0.60;;;28.20;29.40;;;;;;5037863;28;20168;-70
2022/11/03 05:27:01;;;;;;;1.10;0.50;;;27.20;31.30;;;;;;5041076;28;20177;-70
2022/11/03 05:29:39;;;;;;;2.83;0.70;;;26.60;33.70;;;;;;5068428;28;20536;-72
2022/11/03 05:32:19;;;;;;;2.43;0.70;;;25.40;36.00;;;;;;5052572;28;20541;-68
2022/11/03 05:34:49;;;;;;;4.27;0.80;;;24.40;39.20;;;;;;5053227;28;20223;-69
2022/11/03 05:37:32;;;;;;;4.73;1.10;;;23.10;43.50;;;;;;5052975;28;20183;-68
2022/11/03 05:40:21;;;;;;;5.77;1.07;;;22.40;46.10;;;;;;5053381;28;20175;-69
2022/11/03 05:42:55;;;;;;;6.13;1.10;;;22.20;46.10;;;;;;5039081;28;20174;-70
2022/11/03 05:45:32;;;;;;;4.67;1.00;;;21.30;48.50;;;;;;5052742;28;20261;-70
2022/11/03 05:48:02;;;;;;;7.70;1.20;;;21.10;49.70;;;;;;5050118;28;20191;-66
2022/11/03 05:50:33;;;;;;;7.30;1.17;;;20.90;50.70;;;;;;5051297;28;20259;-71
2022/11/03 05:53:09;;;;;;;4.77;1.00;;;20.60;51.90;;;;;;5031816;28;20578;-68
2022/11/03 05:55:37;;;;;;;3.73;1.10;;;20.10;52.40;;;;;;5035533;28;20192;-69
2022/11/03 05:58:35;;;;;;;3.27;0.97;;;20.00;52.90;;;;;;5053052;28;20251;-67
2022/11/03 06:01:25;;;;;;;4.37;1.10;;;20.20;52.30;;;;;;5048965;28;20688;-72
2022/11/03 06:03:52;;;;;;;5.43;1.27;;;20.10;52.10;;;;;;5052722;28;20180;-67
2022/11/03 06:06:33;;;;;;;2.17;0.77;;;20.30;52.10;;;;;;5051700;28;20267;-68
2022/11/03 06:09:03;;;;;;;6.07;1.00;;;20.00;52.80;;;;;;5052840;28;20645;-68
2022/11/03 06:11:37;;;;;;;4.30;1.00;;;20.20;52.80;;;;;;5052942;28;20645;-68
2022/11/03 06:14:25;;;;;;;6.63;1.07;;;20.40;52.30;;;;;;5044641;28;20337;-68
2022/11/03 06:16:57;;;;;;;6.43;1.13;;;21.80;50.00;;;;;;5041562;28;20574;-68
2022/11/03 06:19:35;;;;;;;5.80;1.37;;;22.90;47.40;;;;;;5048986;28;20184;-68
2022/11/03 06:22:24;;;;;;;4.30;0.93;;;24.00;44.40;;;;;;5041075;28;20188;-66
2022/11/03 06:25:27;;;;;;;5.83;1.07;;;22.70;48.00;;;;;;5039995;28;20187;-68
2022/11/03 06:27:59;;;;;;;4.87;1.20;;;21.80;49.90;;;;;;5052106;28;20183;-68
2022/11/03 06:30:31;;;;;;;4.93;1.20;;;21.40;51.50;;;;;;5047601;28;20204;-66
2022/11/03 06:33:12;;;;;;;7.10;2.77;;;21.80;50.40;;;;;;5049985;28;20176;-67
2022/11/03 06:35:40;;;;;;;13.80;2.83;;;21.30;51.00;;;;;;5051344;28;20278;-66
2022/11/03 06:38:18;;;;;;;6.90;1.40;;;20.50;53.10;;;;;;5037154;28;20230;-68
2022/11/03 06:40:48;;;;;;;6.97;1.57;;;20.40;53.60;;;;;;5042737;28;20179;-69
2022/11/03 06:43:42;;;;;;;6.33;1.10;;;20.70;53.10;;;;;;5052075;28;20697;-68
2022/11/03 06:46:21;;;;;;;7.10;1.40;;;21.90;49.70;;;;;;5050468;28;20642;-67
2022/11/03 06:48:49;;;;;;;6.00;1.40;;;22.00;48.90;;;;;;5038811;28;20262;-71
2022/11/03 06:51:22;;;;;;;6.37;1.50;;;22.90;47.20;;;;;;5052399;28;20171;-68
2022/11/03 06:53:51;;;;;;;7.67;2.07;;;22.80;47.60;;;;;;5050255;28;20196;-67
2022/11/03 06:56:31;;;;;;;8.10;1.87;;;22.10;49.50;;;;;;5051372;28;20176;-67
2022/11/03 06:58:58;;;;;;;9.83;1.80;;;20.90;52.50;;;;;;5049835;28;20180;-67
2022/11/03 07:01:31;;;;;;;5.27;1.83;;;20.00;55.10;;;;;;5049026;28;20184;-67
2022/11/03 07:04:12;;;;;;;6.47;1.27;;;19.70;56.30;;;;;;5052238;28;20198;-69
2022/11/03 07:06:40;;;;;;;10.07;1.93;;;19.60;57.00;;;;;;5034072;28;20176;-66
2022/11/03 07:09:16;;;;;;;11.53;1.93;;;19.20;58.50;;;;;;5046547;28;20172;-66
2022/11/03 07:11:55;;;;;;;10.70;1.80;;;18.70;59.80;;;;;;5052014;28;20186;-68
2022/11/03 07:14:26;;;;;;;8.23;1.93;;;18.60;60.40;;;;;;5052068;28;20269;-68
2022/11/03 07:17:02;;;;;;;7.73;1.73;;;18.40;60.40;;;;;;5051074;28;20175;-67
2022/11/03 07:19:42;;;;;;;12.30;2.30;;;18.40;60.40;;;;;;5027261;28;20210;-67
2022/11/03 07:22:23;;;;;;;12.20;2.03;;;18.30;61.00;;;;;;5049158;28;20709;-68
2022/11/03 07:25:00;;;;;;;12.03;2.10;;;18.10;61.00;;;;;;5052441;28;20206;-68
2022/11/03 07:27:32;;;;;;;9.57;2.17;;;18.20;60.90;;;;;;5051296;28;20190;-67
2022/11/03 07:30:20;;;;;;;9.43;1.83;;;18.20;60.90;;;;;;5049765;28;20212;-67
2022/11/03 07:32:56;;;;;;;10.47;2.20;;;18.20;60.60;;;;;;5039984;28;20186;-67
2022/11/03 07:35:33;;;;;;;7.67;1.87;;;18.10;60.90;;;;;;5035197;28;20218;-67
2022/11/03 07:38:22;;;;;;;9.03;2.17;;;18.20;60.60;;;;;;5050010;28;20175;-67
2022/11/03 07:40:55;;;;;;;10.47;2.50;;;18.20;60.50;;;;;;5035388;28;20195;-67
2022/11/03 07:43:33;;;;;;;11.93;2.47;;;18.00;60.20;;;;;;5033207;28;20180;-66
2022/11/03 07:46:05;;;;;;;10.53;1.93;;;18.00;60.20;;;;;;5050298;28;20195;-67
2022/11/03 07:48:56;;;;;;;8.57;2.57;;;18.00;60.40;;;;;;5050406;28;20180;-67
2022/11/03 07:51:32;;;;;;;11.47;2.50;;;18.00;60.90;;;;;;5053274;28;20168;-66
2022/11/03 07:54:12;;;;;;;8.97;2.10;;;18.00;60.80;;;;;;5037560;28;20210;-66
2022/11/03 07:56:50;;;;;;;8.80;2.00;;;17.80;61.30;;;;;;5052588;28;20218;-70
2022/11/03 07:59:26;;;;;;;16.77;2.57;;;17.80;61.50;;;;;;5050396;28;20203;-67
2022/11/03 08:01:57;;;;;;;14.37;2.73;;;17.80;61.60;;;;;;5051761;28;20189;-67
2022/11/03 08:04:33;;;;;;;12.67;2.17;;;17.80;61.80;;;;;;5055011;28;20180;-67
2022/11/03 08:07:01;;;;;;;11.50;2.73;;;17.80;62.00;;;;;;5069970;28;20176;-68
2022/11/03 08:09:28;;;;;;;13.20;2.67;;;17.70;62.10;;;;;;5037118;28;20245;-67
2022/11/03 08:11:55;;;;;;;7.03;2.00;;;17.60;62.20;;;;;;5055367;28;20175;-66
2022/11/03 08:14:23;;;;;;;9.97;2.17;;;17.60;61.70;;;;;;5054924;28;20745;-66
2022/11/03 08:16:50;;;;;;;9.73;2.27;;;17.60;61.60;;;;;;5048468;28;20211;-67
2022/11/03 08:19:17;;;;;;;11.73;2.03;;;17.30;62.00;;;;;;5049550;28;20694;-67
2022/11/03 08:21:45;;;;;;;11.80;2.57;;;17.30;62.20;;;;;;5050252;28;20192;-67
2022/11/03 08:24:12;;;;;;;12.63;2.33;;;17.20;62.40;;;;;;5053300;28;20210;-67
2022/11/03 08:26:39;;;;;;;10.20;2.10;;;17.20;62.60;;;;;;5053744;28;20286;-67
2022/11/03 08:29:10;;;;;;;17.93;2.57;;;17.20;62.60;;;;;;5052126;28;20190;-69
2022/11/03 08:31:37;;;;;;;17.43;3.07;;;17.20;62.70;;;;;;5045265;28;20232;-69
2022/11/03 08:34:04;;;;;;;9.37;2.47;;;17.10;63.10;;;;;;5049828;28;20223;-68
2022/11/03 08:36:32;;;;;;;8.43;2.30;;;17.10;62.90;;;;;;5048691;28;20229;-68
2022/11/03 08:38:59;;;;;;;15.77;2.77;;;17.10;63.10;;;;;;5045660;28;20584;-67
2022/11/03 08:41:27;;;;;;;12.80;2.80;;;17.10;63.20;;;;;;5051723;28;20186;-67
2022/11/03 08:43:54;;;;;;;10.33;2.27;;;17.10;63.10;;;;;;5052122;28;20239;-66
2022/11/03 08:46:22;;;;;;;10.13;3.17;;;17.00;63.10;;;;;;5051617;28;20266;-67
2022/11/03 08:48:50;;;;;;;10.37;2.47;;;17.10;63.00;;;;;;5044032;28;20569;-67
2022/11/03 08:51:18;;;;;;;10.67;2.17;;;17.10;62.60;;;;;;5026502;28;20191;-67
2022/11/03 08:53:49;;;;;;;10.73;2.23;;;17.10;62.60;;;;;;5052123;28;20218;-67
2022/11/03 08:56:16;;;;;;;9.57;2.73;;;17.20;62.60;;;;;;5051170;28;20227;-67
2022/11/03 08:58:44;;;;;;;12.97;2.37;;;17.20;62.50;;;;;;5052329;28;20183;-67
2022/11/03 09:01:12;;;;;;;13.37;2.90;;;17.20;62.30;;;;;;5051778;28;20245;-66
2022/11/03 09:03:40;;;;;;;11.63;2.70;;;17.10;62.50;;;;;;5053522;28;20190;-67
2022/11/03 09:06:08;;;;;;;14.87;2.73;;;17.10;62.70;;;;;;5054031;28;20183;-66
2022/11/03 09:08:35;;;;;;;15.57;3.10;;;17.10;62.80;;;;;;5061834;28;20290;-66
2022/11/03 09:11:03;;;;;;;11.90;3.23;;;17.20;62.60;;;;;;5052736;28;20183;-67
2022/11/03 09:13:30;;;;;;;11.63;2.17;;;17.20;62.50;;;;;;5051745;28;20274;-67
2022/11/03 09:15:58;;;;;;;12.80;2.43;;;17.20;62.80;;;;;;5028242;28;20285;-66
2022/11/03 09:18:25;;;;;;;8.73;2.20;;;17.20;62.80;;;;;;5053988;28;20214;-66
2022/11/03 09:20:53;;;;;;;13.57;2.67;;;17.20;63.00;;;;;;5050198;28;20183;-66
2022/11/03 09:23:21;;;;;;;12.67;2.47;;;17.30;63.00;;;;;;5051560;28;20646;-67
2022/11/03 09:25:48;;;;;;;14.27;2.47;;;17.30;62.90;;;;;;5052189;28;20244;-67
2022/11/03 09:28:15;;;;;;;11.80;2.50;;;17.30;63.00;;;;;;5045764;28;20620;-67
2022/11/03 09:30:43;;;;;;;10.57;2.13;;;17.20;63.00;;;;;;5052968;28;20529;-68
2022/11/03 09:33:10;;;;;;;9.97;2.80;;;17.20;63.50;;;;;;5053040;28;20566;-67
2022/11/03 09:35:40;;;;;;;14.47;2.90;;;17.00;64.50;;;;;;5053719;28;20196;-68
2022/11/03 09:38:08;;;;;;;10.93;2.60;;;17.10;67.10;;;;;;5052815;28;20660;-67
2022/11/03 09:40:36;;;;;;;14.80;2.70;;;17.00;68.80;;;;;;5051582;28;20180;-69
2022/11/03 09:43:03;;;;;;;9.90;2.60;;;16.90;69.30;;;;;;5053475;28;20168;-69
2022/11/03 09:45:32;;;;;;;14.17;2.97;;;16.80;69.70;;;;;;5052486;28;20261;-68
2022/11/03 09:48:00;;;;;;;15.67;2.83;;;16.70;70.00;;;;;;5053194;28;20195;-67
2022/11/03 09:50:28;;;;;;;12.10;2.30;;;16.70;70.20;;;;;;5050675;28;20552;-66
2022/11/03 09:52:56;;;;;;;7.93;2.50;;;16.70;69.90;;;;;;5053351;28;20222;-66
2022/11/03 09:55:26;;;;;;;13.33;2.70;;;16.70;70.10;;;;;;5043649;28;20696;-68
2022/11/03 09:58:16;;;;;;;12.97;2.30;;;16.60;69.30;;;;;;5049122;28;20175;-66
2022/11/03 10:00:45;;;;;;;12.63;2.80;;;16.60;69.20;;;;;;5051320;28;20738;-68
2022/11/03 10:03:14;;;;;;;14.30;2.93;;;16.70;69.40;;;;;;5052944;28;20241;-66
2022/11/03 10:05:43;;;;;;;18.10;3.20;;;16.70;68.60;;;;;;5052904;28;20184;-68
2022/11/03 10:08:28;;;;;;;16.17;2.80;;;16.70;69.00;;;;;;5052788;28;20187;-67
2022/11/03 10:10:56;;;;;;;7.80;2.40;;;16.70;69.30;;;;;;5049315;28;20259;-67
2022/11/03 10:13:37;;;;;;;10.53;2.33;;;16.60;68.30;;;;;;5043422;28;20190;-68
2022/11/03 10:16:08;;;;;;;12.00;2.87;;;16.60;69.00;;;;;;5063584;28;20678;-67
2022/11/03 10:18:36;;;;;;;7.23;2.17;;;16.70;69.50;;;;;;5049680;28;20188;-67
2022/11/03 10:21:06;;;;;;;11.17;2.23;;;16.60;68.90;;;;;;5052083;28;20188;-67
2022/11/03 10:23:34;;;;;;;9.77;2.20;;;16.60;68.60;;;;;;5052722;28;20202;-67
2022/11/03 10:26:11;;;;;;;12.67;2.33;;;16.60;69.60;;;;;;5041771;28;20191;-68
2022/11/03 10:28:39;;;;;;;10.10;2.27;;;16.60;68.40;;;;;;5039241;28;20183;-67
2022/11/03 10:31:20;;;;;;;10.20;2.30;;;16.60;68.90;;;;;;5052217;28;20175;-68
2022/11/03 10:33:55;;;;;;;13.03;2.63;;;16.60;68.70;;;;;;5034130;28;20219;-67
2022/11/03 10:36:25;;;;;;;10.03;2.30;;;16.60;69.60;;;;;;5048715;28;20283;-67
2022/11/03 10:38:53;;;;;;;11.87;2.60;;;16.60;71.00;;;;;;5048703;28;20638;-69
2022/11/03 10:41:28;;;;;;;12.47;2.70;;;16.70;71.90;;;;;;5051372;28;20194;-69
2022/11/03 10:44:18;;;;;;;14.67;2.87;;;16.60;72.30;;;;;;5051687;28;20235;-70
2022/11/03 10:47:03;;;;;;;12.07;2.67;;;16.60;72.90;;;;;;5052045;28;20272;-68
2022/11/03 10:49:32;;;;;;;14.13;2.60;;;16.50;74.00;;;;;;5051548;28;20198;-69
2022/11/03 10:52:09;;;;;;;11.30;3.20;;;16.50;74.60;;;;;;5052042;28;20548;-69
2022/11/03 10:54:37;;;;;;;16.97;2.80;;;16.40;75.00;;;;;;5052008;28;20775;-68
2022/11/03 10:57:04;;;;;;;11.30;2.20;;;16.40;75.80;;;;;;5052314;28;20277;-68
2022/11/03 10:59:35;;;;;;;10.30;3.03;;;16.40;75.80;;;;;;5051616;28;20527;-68
2022/11/03 11:02:13;;;;;;;8.67;2.17;;;16.30;76.30;;;;;;5052305;28;20273;-68
2022/11/03 11:04:41;;;;;;;8.73;2.87;;;16.30;76.70;;;;;;5052063;28;20179;-69
2022/11/03 11:07:25;;;;;;;9.67;2.40;;;16.30;76.80;;;;;;5051926;28;20201;-69
2022/11/03 11:09:54;;;;;;;16.30;4.77;;;16.20;77.00;;;;;;5052383;28;20649;-68
2022/11/03 11:12:25;;;;;;;15.40;2.90;;;16.20;77.60;;;;;;5052165;28;20272;-69
2022/11/03 11:15:00;;;;;;;12.10;2.27;;;16.20;77.70;;;;;;5051052;28;20608;-69
2022/11/03 11:17:42;;;;;;;10.60;2.70;;;16.20;77.10;;;;;;5049604;28;20191;-69
2022/11/03 11:20:28;;;;;;;12.23;2.70;;;16.20;77.20;;;;;;5066956;28;20524;-68
2022/11/03 11:23:16;;;;;;;11.93;2.40;;;16.30;77.70;;;;;;5042243;28;20223;-71
2022/11/03 11:26:10;;;;;;;9.50;2.43;;;16.30;77.60;;;;;;5050151;28;20224;-69
2022/11/03 11:29:30;;;;;;;18.43;8.13;;;16.20;79.00;;;;;;5043142;28;20175;-69
2022/11/03 11:31:57;;;;;;;13.27;3.43;;;16.20;79.00;;;;;;4993866;28;20578;-67
2022/11/03 11:34:25;;;;;;;11.47;2.60;;;16.20;78.30;;;;;;4992645;28;20373;-69
2022/11/03 11:36:55;;;;;;;10.00;3.10;;;16.20;79.00;;;;;;5025375;28;20194;-68
2022/11/03 11:39:29;;;;;;;16.23;3.50;;;16.20;79.30;;;;;;5070709;28;20561;-68
2022/11/03 11:42:18;;;;;;;10.80;3.20;;;16.20;78.70;;;;;;5070611;28;20194;-68
2022/11/03 11:45:00;;;;;;;9.33;2.63;;;16.20;78.40;;;;;;5054516;28;20227;-70
2022/11/03 11:47:32;;;;;;;19.60;2.67;;;16.10;78.70;;;;;;5048008;28;20186;-68
2022/11/03 11:50:10;;;;;;;15.10;2.60;;;16.10;78.10;;;;;;5055348;28;20206;-68
2022/11/03 11:52:49;;;;;;;11.77;2.70;;;16.20;77.80;;;;;;5054601;28;20627;-68
2022/11/03 11:55:39;;;;;;;15.37;3.00;;;16.20;78.00;;;;;;5052665;28;20592;-69
2022/11/03 11:58:22;;;;;;;8.77;2.70;;;16.30;77.80;;;;;;5054688;28;20321;-68
2022/11/03 12:00:55;;;;;;;9.57;2.30;;;16.30;77.60;;;;;;5055201;28;20187;-68
2022/11/03 12:03:39;;;;;;;14.87;3.13;;;16.30;77.00;;;;;;5055466;28;20169;-68
2022/11/03 12:06:07;;;;;;;12.23;2.80;;;16.20;76.50;;;;;;5037377;28;20711;-68
2022/11/03 12:08:34;;;;;;;8.67;2.40;;;16.20;76.70;;;;;;5055234;28;20672;-69
2022/11/03 12:11:04;;;;;;;11.80;3.27;;;16.20;76.50;;;;;;5055206;28;20703;-68
2022/11/03 12:13:51;;;;;;;7.17;2.63;;;16.10;76.30;;;;;;5053880;28;20190;-68
2022/11/03 12:16:34;;;;;;;12.20;2.60;;;15.90;76.60;;;;;;5055107;28;20193;-68
2022/11/03 12:19:40;;;;;;;15.07;2.80;;;15.80;76.60;;;;;;5055132;28;20188;-68
2022/11/03 12:22:10;;;;;;;12.30;2.53;;;15.70;76.70;;;;;;5054885;28;20180;-68
2022/11/03 12:24:59;;;;;;;11.53;2.53;;;15.70;77.10;;;;;;5045302;28;20222;-70
2022/11/03 12:27:27;;;;;;;10.33;2.30;;;15.60;77.10;;;;;;5036512;28;20191;-69
2022/11/03 12:29:58;;;;;;;6.37;1.93;;;15.50;77.10;;;;;;5054636;28;20213;-69
2022/11/03 12:32:26;;;;;;;8.23;2.40;;;15.40;77.20;;;;;;5054464;28;20208;-68
2022/11/03 12:34:55;;;;;;;9.83;2.20;;;15.30;77.00;;;;;;5053746;28;20564;-68
2022/11/03 12:37:22;;;;;;;11.73;2.40;;;15.30;77.10;;;;;;5054907;28;20176;-69
2022/11/03 12:39:50;;;;;;;12.00;2.37;;;15.20;77.30;;;;;;5054850;28;20267;-67
2022/11/03 12:42:18;;;;;;;12.57;2.60;;;15.20;77.40;;;;;;5052367;28;20711;-70
2022/11/03 12:44:46;;;;;;;15.83;2.87;;;15.20;78.20;;;;;;5051444;28;20258;-69
2022/11/03 12:47:13;;;;;;;14.73;2.37;;;15.20;78.70;;;;;;5054383;28;20183;-69
2022/11/03 12:49:40;;;;;;;11.83;2.50;;;15.20;79.00;;;;;;5054364;28;20262;-68
2022/11/03 12:52:09;;;;;;;11.17;2.50;;;15.20;79.20;;;;;;5053868;28;20311;-68
2022/11/03 12:54:36;;;;;;;10.93;2.23;;;15.20;79.50;;;;;;5054456;28;20294;-69
2022/11/03 12:57:04;;;;;;;11.30;2.50;;;15.30;80.20;;;;;;5054226;28;20181;-68
2022/11/03 12:59:31;;;;;;;14.90;2.60;;;15.40;80.30;;;;;;5053951;28;20168;-68
2022/11/03 13:01:58;;;;;;;13.27;2.60;;;15.60;80.60;;;;;;5053979;28;20179;-69
2022/11/03 13:04:26;;;;;;;11.60;2.80;;;15.70;80.30;;;;;;5053714;28;20184;-70
2022/11/03 13:06:53;;;;;;;10.43;2.80;;;15.60;79.00;;;;;;5054301;28;20183;-68
2022/11/03 13:09:20;;;;;;;15.57;2.90;;;15.60;78.80;;;;;;5054045;28;20636;-68
2022/11/03 13:14:33;;;;;;;15.80;2.60;;;15.70;77.10;;;;;;5050663;28;20222;-68
2022/11/03 13:17:02;;;;;;;12.70;2.63;;;15.70;76.70;;;;;;5036121;28;20518;-70
2022/11/03 13:19:30;;;;;;;16.27;2.87;;;15.70;77.10;;;;;;5053826;28;20186;-70
2022/11/03 13:21:57;;;;;;;17.27;3.20;;;15.70;76.60;;;;;;5043414;28;20176;-67
2022/11/03 13:24:25;;;;;;;13.30;2.83;;;15.70;76.90;;;;;;5044966;28;20191;-68
2022/11/03 13:26:52;;;;;;;10.77;2.20;;;15.70;76.90;;;;;;5047343;28;20654;-69
2022/11/03 13:29:19;;;;;;;12.97;2.87;;;15.70;76.70;;;;;;5053136;28;20191;-70
2022/11/03 13:31:47;;;;;;;13.00;2.70;;;15.60;77.30;;;;;;5053614;28;20204;-68